Ahwahnee, California
Current Conditions -  °F | °C
As of 2:19 AM on Saturday 22 Nov 2014 (Local Time) from KMAE Reporting Station
Haze Haze  
Wind Chill: 46°   Ceiling: Unl
Heat Index: 46°   Visibility: 2.5mi
Dew Point: 44°   Wind: 0mph
Humidity: 93%   Direction: NA
Pressure: 30.2"   Gusts: NA
Location:  37.37°N, 119.73°W
Report Text: KMAE 221019Z AUTO 00000KT 2 1/2SM BR CLR 08/07 A3020 RMK AO2 T00780067
Loading
Personal Weather Stations






























Interactive Weather Map New forecast layout! Learn more

10-Day Weather Forecast

Advertisements
Track Severe Weather on mobile